Observation data for Jayton on 01/19/2019      Previous  Date  Next       Current Mesonet Observations  Soil Data  Daily Summary Page  Observations in Plain Language
KJTS 190600Z 34019G25KT 04/M02 A2999 RMK A01 T00431017  RH  065%=      5-min Rain = 0
KJTS 190605Z 34020G29KT 04/M02 A30 RMK A01 T00441016  RH  066%=      5-min Rain = 0
KJTS 190610Z 33016G21KT 04/M02 A30 RMK A01 T00441015  RH  066%=      5-min Rain = 0
KJTS 190615Z 33020G27KT 04/M02 A30 RMK A01 T00431015  RH  066%=      5-min Rain = 0
KJTS 190620Z 34020G28KT 04/M02 A3001 RMK A01 T00421016  RH  066%=      5-min Rain = 0
KJTS 190625Z 34019G25KT 04/M02 A3001 RMK A01 T00431018  RH  065%=      5-min Rain = 0
KJTS 190630Z 34018G25KT 04/M02 A3002 RMK A01 T00431018  RH  065%=      5-min Rain = 0
KJTS 190635Z 33020G25KT 04/M02 A3002 RMK A01 T00431019  RH  065%=      5-min Rain = 0
KJTS 190640Z 33021G29KT 04/M02 A3003 RMK A01 T00411018  RH  066%=      5-min Rain = 0
KJTS 190645Z 33025G34KT 04/M02 A3003 RMK A01 T00361017  RH  069%=      5-min Rain = 0
KJTS 190650Z 33022G29KT 03/M02 A3003 RMK A01 T00341016  RH  070%=      5-min Rain = 0
KJTS 190655Z 33020G28KT 03/M02 A3003 RMK A01 T00341016  RH  071%=      5-min Rain = 0
KJTS 190700Z 33022G29KT 03/M02 A3004 RMK A01 T00321015  RH  072%=      5-min Rain = 0
KJTS 190705Z 33021G27KT 03/M01 A3004 RMK A01 T00291014  RH  074%=      5-min Rain = 0
KJTS 190710Z 33018G25KT 03/M01 A3004 RMK A01 T00271011  RH  077%=      5-min Rain = 0
KJTS 190715Z 34023G29KT 03/M01 A3005 RMK A01 T00261014  RH  076%=      5-min Rain = 0
KJTS 190720Z 34021G27KT 03/M02 A3005 RMK A01 T00271015  RH  074%=      5-min Rain = 0
KJTS 190725Z 33020G25KT 03/M02 A3005 RMK A01 T00271017  RH  073%=      5-min Rain = 0
KJTS 190730Z 34021G30KT 03/M02 A3005 RMK A01 T00281017  RH  073%=      5-min Rain = 0
KJTS 190735Z 33018G24KT 03/M02 A3006 RMK A01 T00281017  RH  073%=      5-min Rain = 0
KJTS 190740Z 34017G24KT 03/M02 A3006 RMK A01 T00271017  RH  073%=      5-min Rain = 0
KJTS 190745Z 35017G25KT 03/M01 A3007 RMK A01 T00251014  RH  076%=      5-min Rain = 0
KJTS 190750Z 34018G25KT 02/M01 A3007 RMK A01 T00221013  RH  078%=      5-min Rain = 0
KJTS 190755Z 34014G19KT 02/M01 A3007 RMK A01 T00231012  RH  079%=      5-min Rain = 0
KJTS 190800Z 34015G20KT 02/M01 A3008 RMK A01 T00231012  RH  079%=      5-min Rain = 0
KJTS 190805Z 34016G23KT 02/M01 A3008 RMK A01 T00231012  RH  078%=      5-min Rain = 0
KJTS 190810Z 33013G19KT 02/M01 A3008 RMK A01 T00231012  RH  078%=      5-min Rain = 0
KJTS 190815Z 33015G25KT 02/M01 A3008 RMK A01 T00231013  RH  078%=      5-min Rain = 0
KJTS 190820Z 33015KT 02/M01 A3008 RMK A01 T00241013  RH  078%=      5-min Rain = 0
KJTS 190825Z 33014KT 02/M01 A3008 RMK A01 T00241013  RH  077%=      5-min Rain = 0
KJTS 190830Z 33014KT 02/M01 A3008 RMK A01 T00241013  RH  077%=      5-min Rain = 0
KJTS 190835Z 34018G24KT 03/M02 A3008 RMK A01 T00251015  RH  076%=      5-min Rain = 0
KJTS 190840Z 33016KT 03/M02 A3008 RMK A01 T00251015  RH  075%=      5-min Rain = 0
KJTS 190845Z 34014KT 03/M01 A3009 RMK A01 T00251014  RH  076%=      5-min Rain = 0
KJTS 190850Z 34017G24KT 03/M01 A3009 RMK A01 T00251014  RH  076%=      5-min Rain = 0
KJTS 190855Z 34014G21KT 03/M01 A3009 RMK A01 T00251014  RH  076%=      5-min Rain = 0
KJTS 190900Z 34015KT 03/M01 A3009 RMK A01 T00251014  RH  076%=      5-min Rain = 0
KJTS 190905Z 33012KT 03/M01 A3009 RMK A01 T00251014  RH  076%=      5-min Rain = 0
KJTS 190910Z 33012KT 03/M01 A3009 RMK A01 T00261014  RH  076%=      5-min Rain = 0
KJTS 190915Z 33012KT 03/M01 A301 RMK A01 T00261014  RH  076%=      5-min Rain = 0
KJTS 190920Z 33010KT 03/M01 A301 RMK A01 T00261014  RH  076%=      5-min Rain = 0
KJTS 190925Z 33012KT 03/M01 A301 RMK A01 T00271014  RH  075%=      5-min Rain = 0
KJTS 190930Z 33013KT 03/M01 A301 RMK A01 T00281014  RH  075%=      5-min Rain = 0
KJTS 190935Z 33010KT 03/M01 A3011 RMK A01 T00281014  RH  075%=      5-min Rain = 0
KJTS 190940Z 32010KT 03/M01 A3011 RMK A01 T00281014  RH  074%=      5-min Rain = 0
KJTS 190945Z 32011KT 03/M01 A3011 RMK A01 T00291014  RH  074%=      5-min Rain = 0
KJTS 190950Z 32011KT 03/M01 A3012 RMK A01 T00301014  RH  073%=      5-min Rain = 0
KJTS 190955Z 33011KT 03/M01 A3012 RMK A01 T00311014  RH  073%=      5-min Rain = 0
KJTS 191000Z 33011G17KT 03/M02 A3012 RMK A01 T00311015  RH  072%=      5-min Rain = 0
KJTS 191005Z 33011KT 03/M02 A3012 RMK A01 T00321015  RH  072%=      5-min Rain = 0
KJTS 191010Z 32014G21KT 03/M02 A3012 RMK A01 T00321016  RH  071%=      5-min Rain = 0
KJTS 191015Z 33019G29KT 03/M02 A3012 RMK A01 T00331019  RH  069%=      5-min Rain = 0
KJTS 191020Z 33022G30KT 03/M02 A3012 RMK A01 T00341023  RH  066%=      5-min Rain = 0
KJTS 191025Z 33020G25KT 03/M03 A3012 RMK A01 T00331025  RH  066%=      5-min Rain = 0
KJTS 191030Z 34019G25KT 03/M03 A3013 RMK A01 T00321025  RH  066%=      5-min Rain = 0
KJTS 191035Z 33019G25KT 03/M03 A3013 RMK A01 T00321025  RH  067%=      5-min Rain = 0
KJTS 191040Z 33016G22KT 03/M03 A3013 RMK A01 T00311025  RH  067%=      5-min Rain = 0
KJTS 191045Z 35019G26KT 03/M03 A3014 RMK A01 T00281029  RH  066%=      5-min Rain = 0
KJTS 191050Z 34017G25KT 03/M03 A3014 RMK A01 T00271034  RH  065%=      5-min Rain = 0
KJTS 191055Z 33017G26KT 03/M03 A3014 RMK A01 T00251034  RH  066%=      5-min Rain = 0
KJTS 191100Z 34019G25KT 02/M04 A3015 RMK A01 T00231037  RH  065%=      5-min Rain = 0
KJTS 191105Z 34018G26KT 02/M04 A3015 RMK A01 T00221039  RH  064%=      5-min Rain = 0
KJTS 191110Z 34014G21KT 02/M04 A3016 RMK A01 T00201039  RH  065%=      5-min Rain = 0
KJTS 191115Z 34014KT 02/M04 A3016 RMK A01 T00181039  RH  066%=      5-min Rain = 0
KJTS 191120Z 33014G22KT 02/M04 A3016 RMK A01 T00181039  RH  066%=      5-min Rain = 0
KJTS 191125Z 34017G23KT 02/M04 A3017 RMK A01 T00181041  RH  065%=      5-min Rain = 0
KJTS 191130Z 33015G22KT 02/M04 A3017 RMK A01 T00161041  RH  066%=      5-min Rain = 0
KJTS 191135Z 33016G21KT 02/M04 A3017 RMK A01 T00161041  RH  066%=      5-min Rain = 0
KJTS 191140Z 33016KT 02/M04 A3018 RMK A01 T00151041  RH  066%=      5-min Rain = 0
KJTS 191145Z 33013KT 02/M04 A3018 RMK A01 T00151041  RH  067%=      5-min Rain = 0
KJTS 191150Z 33014G19KT 01/M04 A3018 RMK A01 T00131040  RH  068%=      5-min Rain = 0
KJTS 191155Z 33018G23KT 01/M04 A3019 RMK A01 T00141042  RH  067%=      5-min Rain = 0
KJTS 191200Z 33022G29KT 01/M05 A3019 RMK A01 T00141046  RH  065%=      5-min Rain = 0
KJTS 191205Z 33019KT 01/M05 A302 RMK A01 T00141049  RH  063%=      5-min Rain = 0
KJTS 191210Z 33018G24KT 01/M05 A302 RMK A01 T00131050  RH  063%=      5-min Rain = 0
KJTS 191215Z 33017G22KT 01/M05 A302 RMK A01 T00121052  RH  063%=      5-min Rain = 0
KJTS 191220Z 33016KT 01/M05 A302 RMK A01 T00111052  RH  063%=      5-min Rain = 0
KJTS 191225Z 33015KT 01/M05 A3021 RMK A01 T00101053  RH  063%=      5-min Rain = 0
KJTS 191230Z 33018G24KT 01/M05 A302 RMK A01 T00091053  RH  063%=      5-min Rain = 0
KJTS 191235Z 34019G25KT 01/M06 A3021 RMK A01 T00101055  RH  062%=      5-min Rain = 0
KJTS 191240Z 34018G24KT 01/M06 A3021 RMK A01 T00101056  RH  062%=      5-min Rain = 0
KJTS 191245Z 34018G23KT 01/M06 A3021 RMK A01 T00091055  RH  062%=      5-min Rain = 0
KJTS 191250Z 33017G22KT 01/M06 A3022 RMK A01 T00081055  RH  063%=      5-min Rain = 0
KJTS 191255Z 33016KT 01/M06 A3022 RMK A01 T00071055  RH  063%=      5-min Rain = 0
KJTS 191300Z 33014KT 01/M06 A3022 RMK A01 T00061055  RH  064%=      5-min Rain = 0
KJTS 191305Z 33013G18KT 01/M05 A3022 RMK A01 T00051054  RH  065%=      5-min Rain = 0
KJTS 191310Z 34012KT 00/M05 A3022 RMK A01 T00031054  RH  065%=      5-min Rain = 0
KJTS 191315Z 33011KT 00/M05 A3022 RMK A01 T00031054  RH  065%=      5-min Rain = 0
KJTS 191320Z 33011KT 00/M05 A3022 RMK A01 T00021054  RH  066%=      5-min Rain = 0
KJTS 191325Z 33011KT 00/M05 A3022 RMK A01 T00021053  RH  067%=      5-min Rain = 0
KJTS 191330Z 33011KT 00/M05 A3022 RMK A01 T00011053  RH  067%=      5-min Rain = 0
KJTS 191335Z 33011KT 00/M05 A3022 RMK A01 T00011053  RH  067%=      5-min Rain = 0
KJTS 191340Z 33009KT M00/M05 A3023 RMK A01 T10011052  RH  068%=      5-min Rain = 0
KJTS 191345Z 33008KT M00/M05 A3023 RMK A01 T10021052  RH  069%=      5-min Rain = 0
KJTS 191350Z 33008KT M00/M05 A3024 RMK A01 T10031052  RH  070%=      5-min Rain = 0
KJTS 191355Z 32008KT M00/M05 A3024 RMK A01 T10041052  RH  071%=      5-min Rain = 0
KJTS 191400Z 32008KT M01/M05 A3025 RMK A01 T10051051  RH  071%=      5-min Rain = 0
KJTS 191405Z 31007KT M01/M05 A3025 RMK A01 T10071051  RH  072%=      5-min Rain = 0
KJTS 191410Z 31007KT M01/M05 A3025 RMK A01 T10061051  RH  072%=      5-min Rain = 0
KJTS 191415Z 30006KT M01/M05 A3025 RMK A01 T10071049  RH  073%=      5-min Rain = 0
KJTS 191420Z 30005KT M01/M05 A3025 RMK A01 T10061048  RH  074%=      5-min Rain = 0
KJTS 191425Z 30007KT M00/M05 A3026 RMK A01 T10031047  RH  073%=      5-min Rain = 0
KJTS 191430Z 30006KT M00/M05 A3026 RMK A01 T10021046  RH  072%=      5-min Rain = 0
KJTS 191435Z 30007KT M00/M05 A3026 RMK A01 T10021046  RH  072%=      5-min Rain = 0
KJTS 191440Z 30007KT 00/04 A3027 RMK A01 T00-00-44  RH  073%=      5-min Rain = 0
KJTS 191445Z 30007KT 00/M04 A3027 RMK A01 T00031043  RH  072%=      5-min Rain = 0
KJTS 191450Z 30008KT 00/M04 A3028 RMK A01 T00041042  RH  072%=      5-min Rain = 0
KJTS 191455Z 30009KT 01/M04 A3028 RMK A01 T00061040  RH  071%=      5-min Rain = 0
KJTS 191500Z 30008KT 01/M04 A3028 RMK A01 T00091039  RH  071%=      5-min Rain = 0
KJTS 191505Z 31009KT 01/M04 A3029 RMK A01 T00131038  RH  069%=      5-min Rain = 0
KJTS 191510Z 32010KT 02/M04 A3029 RMK A01 T00171037  RH  067%=      5-min Rain = 0
KJTS 191515Z 32014G20KT 02/M04 A303 RMK A01 T00191039  RH  066%=      5-min Rain = 0
KJTS 191520Z 33017G25KT 02/M04 A303 RMK A01 T00211040  RH  064%=      5-min Rain = 0
KJTS 191525Z 34016G21KT 02/M04 A303 RMK A01 T00241040  RH  063%=      5-min Rain = 0
KJTS 191530Z 34016G24KT 03/M04 A3031 RMK A01 T00271041  RH  061%=      5-min Rain = 0
KJTS 191535Z 33015G20KT 03/M04 A3031 RMK A01 T00281042  RH  060%=      5-min Rain = 0
KJTS 191540Z 34019G26KT 03/M04 A3031 RMK A01 T00291044  RH  059%=      5-min Rain = 0
KJTS 191545Z 33020G26KT 03/M05 A3032 RMK A01 T00281046  RH  058%=      5-min Rain = 0
KJTS 191550Z 33019KT 03/M05 A3032 RMK A01 T00301045  RH  058%=      5-min Rain = 0
KJTS 191555Z 33018G24KT 03/M05 A3032 RMK A01 T00321047  RH  056%=      5-min Rain = 0
KJTS 191600Z 34018G26KT 03/M05 A3032 RMK A01 T00321049  RH  055%=      5-min Rain = 0
KJTS 191605Z 34018G25KT 03/M05 A3033 RMK A01 T00331049  RH  055%=      5-min Rain = 0
KJTS 191610Z 34017G23KT 04/M05 A3033 RMK A01 T00371047  RH  054%=      5-min Rain = 0
KJTS 191615Z 34018G24KT 04/M05 A3033 RMK A01 T00371048  RH  054%=      5-min Rain = 0
KJTS 191620Z 34017G24KT 04/M05 A3033 RMK A01 T00381047  RH  054%=      5-min Rain = 0
KJTS 191625Z 33019G24KT 04/M05 A3033 RMK A01 T00401048  RH  053%=      5-min Rain = 0
KJTS 191630Z 35017G26KT 04/M05 A3033 RMK A01 T00421047  RH  052%=      5-min Rain = 0
KJTS 191635Z 35017G22KT 04/M05 A3033 RMK A01 T00431047  RH  052%=      5-min Rain = 0
KJTS 191640Z 35017G23KT 04/M05 A3033 RMK A01 T00441046  RH  052%=      5-min Rain = 0
KJTS 191645Z 34017G25KT 05/M05 A3033 RMK A01 T00451048  RH  051%=      5-min Rain = 0
KJTS 191650Z 35018G25KT 05/M05 A3033 RMK A01 T00461049  RH  050%=      5-min Rain = 0
KJTS 191655Z 35018G26KT 05/M05 A3033 RMK A01 T00471049  RH  050%=      5-min Rain = 0
KJTS 191700Z 35018G24KT 05/M05 A3034 RMK A01 T00481048  RH  050%=      5-min Rain = 0
KJTS 191705Z 33019G24KT 05/M05 A3033 RMK A01 T00491049  RH  049%=      5-min Rain = 0
KJTS 191710Z 35017KT 05/M05 A3033 RMK A01 T00491048  RH  050%=      5-min Rain = 0
KJTS 191715Z 35016G21KT 05/M05 A3033 RMK A01 T00511047  RH  049%=      5-min Rain = 0
KJTS 191720Z 35017G23KT 05/M05 A3033 RMK A01 T00511046  RH  050%=      5-min Rain = 0
KJTS 191725Z 34016G22KT 06/M04 A3033 RMK A01 T00551044  RH  049%=      5-min Rain = 0
KJTS 191730Z 34017G22KT 05/M05 A3033 RMK A01 T00541045  RH  049%=      5-min Rain = 0
KJTS 191735Z 35015G20KT 06/M04 A3033 RMK A01 T00581042  RH  049%=      5-min Rain = 0
KJTS 191740Z 34015G22KT 06/M04 A3033 RMK A01 T00571042  RH  049%=      5-min Rain = 0
KJTS 191745Z 35015G22KT 06/M04 A3033 RMK A01 T00591041  RH  049%=      5-min Rain = 0
KJTS 191750Z 34014G19KT 06/M04 A3033 RMK A01 T00621038  RH  049%=      5-min Rain = 0
KJTS 191755Z 34013G19KT 06/M04 A3033 RMK A01 T00621039  RH  049%=      5-min Rain = 0
KJTS 191800Z 33014KT 07/M04 A3033 RMK A01 T00651038  RH  048%=      5-min Rain = 0
KJTS 191805Z 34014KT 06/M04 A3033 RMK A01 T00641039  RH  048%=      5-min Rain = 0
KJTS 191810Z 34016G22KT 07/M04 A3032 RMK A01 T00691038  RH  047%=      5-min Rain = 0
KJTS 191815Z 34017G22KT 07/M04 A3032 RMK A01 T00681041  RH  046%=      5-min Rain = 0
KJTS 191820Z 35017KT 07/M04 A3031 RMK A01 T00681041  RH  046%=      5-min Rain = 0
KJTS 191825Z 35016G21KT 07/M04 A3031 RMK A01 T00691040  RH  046%=      5-min Rain = 0
KJTS 191830Z 34013KT 07/M04 A3031 RMK A01 T00711038  RH  046%=      5-min Rain = 0
KJTS 191835Z 34015G21KT 07/M04 A303 RMK A01 T00711037  RH  046%=      5-min Rain = 0
KJTS 191840Z 33015G20KT 08/M03 A303 RMK A01 T00781034  RH  045%=      5-min Rain = 0
KJTS 191845Z 34016G24KT 08/M04 A303 RMK A01 T00801037  RH  044%=      5-min Rain = 0
KJTS 191850Z 33018KT 08/M04 A303 RMK A01 T00781036  RH  045%=      5-min Rain = 0
KJTS 191855Z 34017G23KT 08/M04 A3029 RMK A01 T00781038  RH  044%=      5-min Rain = 0
KJTS 191900Z 33016G24KT 08/M04 A3029 RMK A01 T00811036  RH  044%=      5-min Rain = 0
KJTS 191905Z 33019G25KT 08/M04 A3029 RMK A01 T00811037  RH  043%=      5-min Rain = 0
KJTS 191910Z 33018G24KT 08/M04 A3029 RMK A01 T00821036  RH  043%=      5-min Rain = 0
KJTS 191915Z 33017G22KT 09/M04 A3029 RMK A01 T00851035  RH  043%=      5-min Rain = 0
KJTS 191920Z 33016G22KT 08/M04 A3029 RMK A01 T00831036  RH  043%=      5-min Rain = 0
KJTS 191925Z 33018G25KT 08/M04 A3029 RMK A01 T00841035  RH  043%=      5-min Rain = 0
KJTS 191930Z 33016G21KT 09/M04 A3028 RMK A01 T00861035  RH  043%=      5-min Rain = 0
KJTS 191935Z 33017G25KT 09/M04 A3028 RMK A01 T00881035  RH  042%=      5-min Rain = 0
KJTS 191940Z 34016G21KT 09/M04 A3028 RMK A01 T00871035  RH  042%=      5-min Rain = 0
KJTS 191945Z 34017G22KT 09/M04 A3028 RMK A01 T00881037  RH  041%=      5-min Rain = 0
KJTS 191950Z 34015G22KT 09/M04 A3028 RMK A01 T00901035  RH  041%=      5-min Rain = 0
KJTS 191955Z 33017G25KT 09/M03 A3028 RMK A01 T00931034  RH  041%=      5-min Rain = 0
KJTS 192000Z 33020G26KT 09/M04 A3027 RMK A01 T00881038  RH  041%=      5-min Rain = 0
KJTS 192005Z 33016G21KT 09/M04 A3027 RMK A01 T00901035  RH  041%=      5-min Rain = 0
KJTS 192010Z 33015G20KT 09/M03 A3027 RMK A01 T00921034  RH  041%=      5-min Rain = 0
KJTS 192015Z 34017G22KT 09/M04 A3027 RMK A01 T00931037  RH  040%=      5-min Rain = 0
KJTS 192020Z 35016KT 09/M04 A3027 RMK A01 T00931036  RH  040%=      5-min Rain = 0
KJTS 192025Z 34017G23KT 10/M04 A3027 RMK A01 T00951037  RH  039%=      5-min Rain = 0
KJTS 192030Z 33016G21KT 10/M04 A3026 RMK A01 T00961036  RH  040%=      5-min Rain = 0
KJTS 192035Z 33015KT 10/M04 A3026 RMK A01 T00971036  RH  039%=      5-min Rain = 0
KJTS 192040Z 33015G23KT 10/M04 A3026 RMK A01 T00981035  RH  039%=      5-min Rain = 0
KJTS 192045Z 34017G22KT 10/M04 A3027 RMK A01 T00981038  RH  038%=      5-min Rain = 0
KJTS 192050Z 34016G21KT 10/M04 A3027 RMK A01 T00981036  RH  039%=      5-min Rain = 0
KJTS 192055Z 34016G22KT 10/M04 A3027 RMK A01 T01011035  RH  038%=      5-min Rain = 0
KJTS 192100Z 34017G22KT 10/M04 A3027 RMK A01 T01001038  RH  038%=      5-min Rain = 0
KJTS 192105Z 34018KT 10/M04 A3026 RMK A01 T01001038  RH  038%=      5-min Rain = 0
KJTS 192110Z 34019KT 10/M04 A3026 RMK A01 T00991040  RH  037%=      5-min Rain = 0
KJTS 192115Z 34017G23KT 10/M04 A3026 RMK A01 T01011039  RH  037%=      5-min Rain = 0
KJTS 192120Z 34014G19KT 10/M04 A3026 RMK A01 T01041036  RH  037%=      5-min Rain = 0
KJTS 192125Z 34018G23KT 10/M04 A3026 RMK A01 T01031038  RH  037%=      5-min Rain = 0
KJTS 192130Z 34019G24KT 10/M04 A3026 RMK A01 T01021039  RH  037%=      5-min Rain = 0
KJTS 192135Z 35016G21KT 10/M04 A3026 RMK A01 T01011038  RH  037%=      5-min Rain = 0
KJTS 192140Z 33016KT 10/M04 A3026 RMK A01 T01031038  RH  037%=      5-min Rain = 0
KJTS 192145Z 35015KT 10/M04 A3027 RMK A01 T01041039  RH  037%=      5-min Rain = 0
KJTS 192150Z 35017G22KT 10/M04 A3027 RMK A01 T01041040  RH  036%=      5-min Rain = 0
KJTS 192155Z 35015G21KT 10/M04 A3027 RMK A01 T01021040  RH  037%=      5-min Rain = 0
KJTS 192200Z 36013G18KT 10/M04 A3027 RMK A01 T01041039  RH  036%=      5-min Rain = 0
KJTS 192205Z 00014G19KT 10/M04 A3027 RMK A01 T01041039  RH  037%=      5-min Rain = 0
KJTS 192210Z 36014KT 10/M04 A3027 RMK A01 T01011040  RH  037%=      5-min Rain = 0
KJTS 192215Z 36012KT 10/M04 A3027 RMK A01 T01021037  RH  038%=      5-min Rain = 0
KJTS 192220Z 00012KT 10/M04 A3027 RMK A01 T01011038  RH  038%=      5-min Rain = 0
KJTS 192225Z 35013KT 10/M04 A3027 RMK A01 T01011037  RH  038%=      5-min Rain = 0
KJTS 192230Z 36012KT 10/M04 A3027 RMK A01 T01011037  RH  038%=      5-min Rain = 0
KJTS 192235Z 36013KT 10/M04 A3027 RMK A01 T01011037  RH  038%=      5-min Rain = 0
KJTS 192240Z 36012G17KT 10/M04 A3027 RMK A01 T01001038  RH  038%=      5-min Rain = 0
KJTS 192245Z 35013G18KT 10/M04 A3027 RMK A01 T01001038  RH  038%=      5-min Rain = 0
KJTS 192250Z 35014KT 10/M04 A3027 RMK A01 T00971040  RH  038%=      5-min Rain = 0
KJTS 192255Z 36013KT 10/M04 A3027 RMK A01 T00971040  RH  038%=      5-min Rain = 0
KJTS 192300Z 36013KT 10/M04 A3027 RMK A01 T00961039  RH  038%=      5-min Rain = 0
KJTS 192305Z 36012KT 10/M04 A3027 RMK A01 T00951040  RH  039%=      5-min Rain = 0
KJTS 192310Z 00011KT 10/M04 A3027 RMK A01 T00951038  RH  039%=      5-min Rain = 0
KJTS 192315Z 01012KT 09/M04 A3027 RMK A01 T00941039  RH  039%=      5-min Rain = 0
KJTS 192320Z 00011KT 09/M04 A3027 RMK A01 T00931038  RH  040%=      5-min Rain = 0
KJTS 192325Z 01012G17KT 09/M04 A3027 RMK A01 T00921039  RH  040%=      5-min Rain = 0
KJTS 192330Z 01010KT 09/M04 A3027 RMK A01 T00901037  RH  041%=      5-min Rain = 0
KJTS 192335Z 01010KT 09/M04 A3027 RMK A01 T00891037  RH  041%=      5-min Rain = 0
KJTS 192340Z 01010KT 09/M04 A3027 RMK A01 T00871037  RH  042%=      5-min Rain = 0
KJTS 192345Z 01010G15KT 08/M04 A3026 RMK A01 T00841038  RH  042%=      5-min Rain = 0
KJTS 192350Z 01008KT 08/M04 A3026 RMK A01 T00821037  RH  043%=      5-min Rain = 0
KJTS 192355Z 01008KT 08/M04 A3027 RMK A01 T00791037  RH  044%=      5-min Rain = 0
KJTS 200000Z 02006KT 08/M04 A3027 RMK A01 T00761036  RH  045%=      5-min Rain = 0
KJTS 200005Z 02006KT 07/M04 A3027 RMK A01 T00731036  RH  046%=      5-min Rain = 0
KJTS 200010Z 02006KT 07/M04 A3027 RMK A01 T00731036  RH  046%=      5-min Rain = 0
KJTS 200015Z 02005KT 07/M04 A3027 RMK A01 T00711036  RH  047%=      5-min Rain = 0
KJTS 200020Z 02006KT 07/M04 A3027 RMK A01 T00691036  RH  047%=      5-min Rain = 0
KJTS 200025Z 02006KT 07/M04 A3027 RMK A01 T00681035  RH  048%=      5-min Rain = 0
KJTS 200030Z 02005KT 07/M04 A3028 RMK A01 T00651035  RH  049%=      5-min Rain = 0
KJTS 200035Z 02005KT 06/M04 A3028 RMK A01 T00611035  RH  050%=      5-min Rain = 0
KJTS 200040Z 02005KT 06/M03 A3028 RMK A01 T00591034  RH  052%=      5-min Rain = 0
KJTS 200045Z 01005KT 06/M04 A3028 RMK A01 T00561035  RH  052%=      5-min Rain = 0
KJTS 200050Z 02005KT 05/M03 A3028 RMK A01 T00521034  RH  054%=      5-min Rain = 0
KJTS 200055Z 03006KT 05/M03 A3028 RMK A01 T00541034  RH  053%=      5-min Rain = 0
KJTS 200100Z 03006KT 06/M04 A3028 RMK A01 T00551035  RH  053%=      5-min Rain = 0
KJTS 200105Z 04005KT 05/M04 A3028 RMK A01 T00471036  RH  055%=      5-min Rain = 0
KJTS 200110Z 05005KT 04/M04 A3029 RMK A01 T00441035  RH  057%=      5-min Rain = 0
KJTS 200115Z 05006KT 04/M04 A3029 RMK A01 T00421035  RH  058%=      5-min Rain = 0
KJTS 200120Z 04006KT 04/M03 A3029 RMK A01 T00431034  RH  058%=      5-min Rain = 0
KJTS 200125Z 03005KT 04/M03 A3029 RMK A01 T00431033  RH  058%=      5-min Rain = 0
KJTS 200130Z 03006KT 04/M03 A3029 RMK A01 T00441032  RH  058%=      5-min Rain = 0
KJTS 200135Z 02005KT 05/M03 A3029 RMK A01 T00461032  RH  058%=      5-min Rain = 0
KJTS 200140Z 02003KT 05/M03 A3029 RMK A01 T00471032  RH  057%=      5-min Rain = 0
KJTS 200145Z 02001KT 04/M03 A303 RMK A01 T00441033  RH  058%=      5-min Rain = 0
KJTS 200150Z 04001KT 04/M03 A303 RMK A01 T00401034  RH  059%=      5-min Rain = 0
KJTS 200155Z 06002KT 03/M03 A303 RMK A01 T00341034  RH  061%=      5-min Rain = 0
KJTS 200200Z 06003KT 03/M03 A3031 RMK A01 T00331034  RH  062%=      5-min Rain = 0
KJTS 200205Z 05004KT 03/M03 A303 RMK A01 T00321034  RH  062%=      5-min Rain = 0
KJTS 200210Z 04004KT 04/M04 A303 RMK A01 T00351035  RH  061%=      5-min Rain = 0
KJTS 200215Z 04005KT 04/M03 A3029 RMK A01 T00381034  RH  059%=      5-min Rain = 0
KJTS 200220Z 05006KT 04/M04 A3029 RMK A01 T00371036  RH  059%=      5-min Rain = 0
KJTS 200225Z 05005KT 03/M04 A3029 RMK A01 T00331036  RH  061%=      5-min Rain = 0
KJTS 200230Z 05006KT 03/M04 A3029 RMK A01 T00321036  RH  062%=      5-min Rain = 0
KJTS 200235Z 05006KT 03/M03 A3029 RMK A01 T00311034  RH  062%=      5-min Rain = 0
KJTS 200240Z 05006KT 03/M03 A3029 RMK A01 T00311034  RH  063%=      5-min Rain = 0
KJTS 200245Z 05007KT 03/M04 A3029 RMK A01 T00271035  RH  064%=      5-min Rain = 0
KJTS 200250Z 05007KT 03/M03 A3029 RMK A01 T00281034  RH  064%=      5-min Rain = 0
KJTS 200255Z 05006KT 03/M03 A3029 RMK A01 T00301033  RH  063%=      5-min Rain = 0
KJTS 200300Z 06005KT 03/M03 A303 RMK A01 T00281034  RH  064%=      5-min Rain = 0
KJTS 200305Z 06005KT 02/M04 A303 RMK A01 T00231036  RH  065%=      5-min Rain = 0
KJTS 200310Z 05005KT 02/M04 A303 RMK A01 T00201036  RH  067%=      5-min Rain = 0
KJTS 200315Z 06005KT 02/M04 A3031 RMK A01 T00191037  RH  067%=      5-min Rain = 0
KJTS 200320Z 06005KT 02/M04 A3031 RMK A01 T00181037  RH  068%=      5-min Rain = 0
KJTS 200325Z 07004KT 02/M04 A3031 RMK A01 T00161037  RH  068%=      5-min Rain = 0
KJTS 200330Z 06004KT 02/M04 A3031 RMK A01 T00171038  RH  067%=      5-min Rain = 0
KJTS 200335Z 06004KT 02/M04 A3032 RMK A01 T00171040  RH  066%=      5-min Rain = 0
KJTS 200340Z 07005KT 02/M04 A3031 RMK A01 T00151042  RH  066%=      5-min Rain = 0
KJTS 200345Z 07005KT 01/M05 A3031 RMK A01 T00111045  RH  066%=      5-min Rain = 0
KJTS 200350Z 07006KT 01/M05 A3031 RMK A01 T00101045  RH  067%=      5-min Rain = 0
KJTS 200355Z 07006KT 01/M05 A3031 RMK A01 T00071046  RH  068%=      5-min Rain = 0
KJTS 200400Z 06007KT 01/M05 A3032 RMK A01 T00081047  RH  067%=      5-min Rain = 0
KJTS 200405Z 07006KT 01/M05 A3032 RMK A01 T00081049  RH  066%=      5-min Rain = 0
KJTS 200410Z 08006KT 01/M05 A3032 RMK A01 T00061049  RH  067%=      5-min Rain = 0
KJTS 200415Z 08006KT 01/M05 A3032 RMK A01 T00051051  RH  066%=      5-min Rain = 0
KJTS 200420Z 07006KT 01/M05 A3032 RMK A01 T00061053  RH  065%=      5-min Rain = 0
KJTS 200425Z 08006KT 01/M05 A3032 RMK A01 T00071052  RH  065%=      5-min Rain = 0
KJTS 200430Z 10006KT 00/M05 A3032 RMK A01 T00031051  RH  067%=      5-min Rain = 0
KJTS 200435Z 10006KT M00/M05 A3032 RMK A01 T10021051  RH  070%=      5-min Rain = 0
KJTS 200440Z 10004KT M00/M05 A3032 RMK A01 T10021050  RH  070%=      5-min Rain = 0
KJTS 200445Z 09004KT M00/M05 A3032 RMK A01 T10031050  RH  071%=      5-min Rain = 0
KJTS 200450Z 09005KT M01/M05 A3032 RMK A01 T10051050  RH  072%=      5-min Rain = 0
KJTS 200455Z 09006KT M01/M05 A3032 RMK A01 T10061050  RH  072%=      5-min Rain = 0
KJTS 200500Z 08005KT M00/M05 A3032 RMK A01 T10011052  RH  069%=      5-min Rain = 0
KJTS 200505Z 07005KT M00/M06 A3033 RMK A01 T10011056  RH  067%=      5-min Rain = 0
KJTS 200510Z 10006KT M00/M06 A3032 RMK A01 T10021056  RH  067%=      5-min Rain = 0
KJTS 200515Z 10006KT M01/M06 A3032 RMK A01 T10051057  RH  068%=      5-min Rain = 0
KJTS 200520Z 08006KT M00/M06 A3032 RMK A01 T10031058  RH  066%=      5-min Rain = 0
KJTS 200525Z 08006KT 00/06 A3033 RMK A01 T00000-61  RH  063%=      5-min Rain = 0
KJTS 200530Z 09006KT M00/M06 A3033 RMK A01 T10011062  RH  064%=      5-min Rain = 0
KJTS 200535Z 09006KT M00/M06 A3032 RMK A01 T10041062  RH  065%=      5-min Rain = 0
KJTS 200540Z 09007KT M00/M06 A3033 RMK A01 T10031064  RH  064%=      5-min Rain = 0
KJTS 200545Z 09007KT M00/M07 A3033 RMK A01 T10021065  RH  063%=      5-min Rain = 0
KJTS 200550Z 08006KT M00/M07 A3033 RMK A01 T10031066  RH  062%=      5-min Rain = 0
KJTS 200555Z 09007KT M00/M07 A3032 RMK A01 T10031068  RH  062%=      5-min Rain = 0

Page generated in 0.0238 seconds.